sensor_id;sensor_type;location;lat;lon;timestamp;P1;durP1;ratioP1;P2;durP2;ratioP2
55728;SDS011;41633;39.720;2.910;2022-08-03T00:02:00;11.05;;;2.30;;
55728;SDS011;41633;39.720;2.910;2022-08-03T00:04:28;6.15;;;2.30;;
55728;SDS011;41633;39.720;2.910;2022-08-03T00:06:54;7.32;;;2.67;;
55728;SDS011;41633;39.720;2.910;2022-08-03T00:09:20;9.50;;;2.70;;
55728;SDS011;41633;39.720;2.910;2022-08-03T00:11:46;6.45;;;2.28;;
55728;SDS011;41633;39.720;2.910;2022-08-03T00:14:12;9.57;;;3.00;;
55728;SDS011;41633;39.720;2.910;2022-08-03T00:16:38;9.57;;;2.80;;
55728;SDS011;41633;39.720;2.910;2022-08-03T00:19:04;9.50;;;3.15;;
55728;SDS011;41633;39.720;2.910;2022-08-03T00:21:30;8.60;;;2.60;;
55728;SDS011;41633;39.720;2.910;2022-08-03T00:23:56;6.90;;;2.17;;
55728;SDS011;41633;39.720;2.910;2022-08-03T00:26:23;7.28;;;2.70;;
55728;SDS011;41633;39.720;2.910;2022-08-03T00:28:49;9.50;;;2.50;;
55728;SDS011;41633;39.720;2.910;2022-08-03T00:31:15;6.80;;;2.47;;
55728;SDS011;41633;39.720;2.910;2022-08-03T00:33:41;7.20;;;2.40;;
55728;SDS011;41633;39.720;2.910;2022-08-03T00:36:07;6.90;;;2.40;;
55728;SDS011;41633;39.720;2.910;2022-08-03T00:38:33;8.23;;;2.28;;
55728;SDS011;41633;39.720;2.910;2022-08-03T00:40:59;6.90;;;2.50;;
55728;SDS011;41633;39.720;2.910;2022-08-03T00:43:26;8.90;;;2.45;;
55728;SDS011;41633;39.720;2.910;2022-08-03T00:45:52;6.57;;;2.55;;
55728;SDS011;41633;39.720;2.910;2022-08-03T00:48:18;10.55;;;3.53;;
55728;SDS011;41633;39.720;2.910;2022-08-03T00:50:45;7.93;;;2.72;;
55728;SDS011;41633;39.720;2.910;2022-08-03T00:53:12;7.30;;;2.70;;
55728;SDS011;41633;39.720;2.910;2022-08-03T00:55:39;7.28;;;2.67;;
55728;SDS011;41633;39.720;2.910;2022-08-03T00:58:06;6.82;;;2.47;;
55728;SDS011;41633;39.720;2.910;2022-08-03T01:00:33;8.13;;;3.13;;
55728;SDS011;41633;39.720;2.910;2022-08-03T01:03:00;8.20;;;3.08;;
55728;SDS011;41633;39.720;2.910;2022-08-03T01:05:26;7.20;;;2.55;;
55728;SDS011;41633;39.720;2.910;2022-08-03T01:17:53;7.70;;;2.55;;
55728;SDS011;41633;39.720;2.910;2022-08-03T01:20:21;10.05;;;2.78;;
55728;SDS011;41633;39.720;2.910;2022-08-03T01:25:30;7.78;;;3.03;;
55728;SDS011;41633;39.720;2.910;2022-08-03T01:28:04;6.95;;;2.50;;
55728;SDS011;41633;39.720;2.910;2022-08-03T01:30:35;6.63;;;2.80;;
55728;SDS011;41633;39.720;2.910;2022-08-03T01:33:03;6.47;;;2.42;;
55728;SDS011;41633;39.720;2.910;2022-08-03T01:36:03;9.57;;;2.65;;
55728;SDS011;41633;39.720;2.910;2022-08-03T01:38:32;8.98;;;2.88;;
55728;SDS011;41633;39.720;2.910;2022-08-03T01:41:06;8.02;;;2.85;;
55728;SDS011;41633;39.720;2.910;2022-08-03T01:43:33;8.27;;;2.80;;
55728;SDS011;41633;39.720;2.910;2022-08-03T01:46:00;8.85;;;2.65;;
55728;SDS011;41633;39.720;2.910;2022-08-03T01:48:27;9.05;;;2.97;;
55728;SDS011;41633;39.720;2.910;2022-08-03T01:50:54;7.93;;;2.40;;
55728;SDS011;41633;39.720;2.910;2022-08-03T01:53:20;8.05;;;2.40;;
55728;SDS011;41633;39.720;2.910;2022-08-03T01:55:47;7.20;;;2.50;;
55728;SDS011;41633;39.720;2.910;2022-08-03T01:58:14;7.45;;;2.50;;
55728;SDS011;41633;39.720;2.910;2022-08-03T02:00:41;10.25;;;2.75;;
55728;SDS011;41633;39.720;2.910;2022-08-03T02:03:08;8.23;;;2.85;;
55728;SDS011;41633;39.720;2.910;2022-08-03T02:05:36;7.40;;;3.03;;
55728;SDS011;41633;39.720;2.910;2022-08-03T02:08:04;8.43;;;2.85;;
55728;SDS011;41633;39.720;2.910;2022-08-03T02:10:31;6.05;;;2.45;;
55728;SDS011;41633;39.720;2.910;2022-08-03T02:12:58;6.68;;;2.72;;
55728;SDS011;41633;39.720;2.910;2022-08-03T02:15:26;8.20;;;2.70;;
55728;SDS011;41633;39.720;2.910;2022-08-03T02:17:53;8.98;;;2.83;;
55728;SDS011;41633;39.720;2.910;2022-08-03T02:20:19;7.68;;;2.88;;
55728;SDS011;41633;39.720;2.910;2022-08-03T02:22:46;9.82;;;2.70;;
55728;SDS011;41633;39.720;2.910;2022-08-03T02:25:13;7.13;;;2.83;;
55728;SDS011;41633;39.720;2.910;2022-08-03T02:27:45;7.35;;;3.40;;
55728;SDS011;41633;39.720;2.910;2022-08-03T02:30:13;9.45;;;2.88;;
55728;SDS011;41633;39.720;2.910;2022-08-03T02:32:40;7.93;;;2.78;;
55728;SDS011;41633;39.720;2.910;2022-08-03T02:35:10;9.38;;;2.80;;
55728;SDS011;41633;39.720;2.910;2022-08-03T02:37:40;7.28;;;2.88;;
55728;SDS011;41633;39.720;2.910;2022-08-03T02:40:07;8.13;;;2.95;;
55728;SDS011;41633;39.720;2.910;2022-08-03T02:42:34;6.95;;;2.53;;
55728;SDS011;41633;39.720;2.910;2022-08-03T02:45:04;8.77;;;2.63;;
55728;SDS011;41633;39.720;2.910;2022-08-03T02:47:31;6.32;;;2.60;;
55728;SDS011;41633;39.720;2.910;2022-08-03T02:49:59;6.20;;;2.40;;
55728;SDS011;41633;39.720;2.910;2022-08-03T02:52:27;8.75;;;2.80;;
55728;SDS011;41633;39.720;2.910;2022-08-03T02:54:55;7.70;;;3.20;;
55728;SDS011;41633;39.720;2.910;2022-08-03T02:57:21;8.98;;;3.92;;
55728;SDS011;41633;39.720;2.910;2022-08-03T02:59:48;7.03;;;2.72;;
55728;SDS011;41633;39.720;2.910;2022-08-03T03:02:14;8.68;;;2.92;;
55728;SDS011;41633;39.720;2.910;2022-08-03T03:04:41;6.38;;;2.50;;
55728;SDS011;41633;39.720;2.910;2022-08-03T03:07:09;7.43;;;3.00;;
55728;SDS011;41633;39.720;2.910;2022-08-03T03:09:36;12.45;;;3.35;;
55728;SDS011;41633;39.720;2.910;2022-08-03T03:12:02;10.00;;;3.03;;
55728;SDS011;41633;39.720;2.910;2022-08-03T03:14:29;8.05;;;2.85;;
55728;SDS011;41633;39.720;2.910;2022-08-03T03:16:56;9.02;;;3.20;;
55728;SDS011;41633;39.720;2.910;2022-08-03T03:19:22;10.15;;;3.58;;
55728;SDS011;41633;39.720;2.910;2022-08-03T03:21:49;6.97;;;2.78;;
55728;SDS011;41633;39.720;2.910;2022-08-03T03:24:15;7.00;;;2.83;;
55728;SDS011;41633;39.720;2.910;2022-08-03T03:26:41;7.25;;;2.83;;
55728;SDS011;41633;39.720;2.910;2022-08-03T03:29:08;8.52;;;2.95;;
55728;SDS011;41633;39.720;2.910;2022-08-03T03:31:34;6.60;;;2.63;;
55728;SDS011;41633;39.720;2.910;2022-08-03T03:34:01;9.15;;;2.92;;
55728;SDS011;41633;39.720;2.910;2022-08-03T03:36:27;8.52;;;2.90;;
55728;SDS011;41633;39.720;2.910;2022-08-03T03:38:54;6.97;;;2.63;;
55728;SDS011;41633;39.720;2.910;2022-08-03T03:41:20;6.25;;;2.45;;
55728;SDS011;41633;39.720;2.910;2022-08-03T03:43:46;7.68;;;2.47;;
55728;SDS011;41633;39.720;2.910;2022-08-03T03:46:13;7.47;;;3.15;;
55728;SDS011;41633;39.720;2.910;2022-08-03T03:48:40;12.77;;;2.72;;
55728;SDS011;41633;39.720;2.910;2022-08-03T03:51:06;9.05;;;2.65;;
55728;SDS011;41633;39.720;2.910;2022-08-03T03:53:32;8.45;;;2.88;;
55728;SDS011;41633;39.720;2.910;2022-08-03T03:55:58;7.97;;;2.88;;
55728;SDS011;41633;39.720;2.910;2022-08-03T03:58:24;7.70;;;2.63;;
55728;SDS011;41633;39.720;2.910;2022-08-03T04:00:50;8.10;;;2.50;;
55728;SDS011;41633;39.720;2.910;2022-08-03T04:03:18;9.10;;;2.83;;
55728;SDS011;41633;39.720;2.910;2022-08-03T04:05:44;8.77;;;2.88;;
55728;SDS011;41633;39.720;2.910;2022-08-03T04:08:29;6.57;;;2.70;;
55728;SDS011;41633;39.720;2.910;2022-08-03T04:11:18;8.20;;;2.58;;
55728;SDS011;41633;39.720;2.910;2022-08-03T04:13:48;6.65;;;2.33;;
55728;SDS011;41633;39.720;2.910;2022-08-03T04:16:15;8.60;;;2.88;;
55728;SDS011;41633;39.720;2.910;2022-08-03T04:18:43;6.82;;;2.67;;
55728;SDS011;41633;39.720;2.910;2022-08-03T04:21:12;6.18;;;2.25;;
55728;SDS011;41633;39.720;2.910;2022-08-03T04:23:40;7.07;;;2.60;;
55728;SDS011;41633;39.720;2.910;2022-08-03T04:26:08;6.20;;;2.20;;
55728;SDS011;41633;39.720;2.910;2022-08-03T04:28:36;8.10;;;2.65;;
55728;SDS011;41633;39.720;2.910;2022-08-03T04:31:04;7.35;;;2.78;;
55728;SDS011;41633;39.720;2.910;2022-08-03T04:33:32;9.52;;;3.60;;
55728;SDS011;41633;39.720;2.910;2022-08-03T04:35:59;8.75;;;2.72;;
55728;SDS011;41633;39.720;2.910;2022-08-03T04:38:25;9.05;;;2.50;;
55728;SDS011;41633;39.720;2.910;2022-08-03T04:40:54;7.40;;;2.40;;
55728;SDS011;41633;39.720;2.910;2022-08-03T04:43:21;14.73;;;3.08;;
55728;SDS011;41633;39.720;2.910;2022-08-03T04:45:48;7.30;;;2.50;;
55728;SDS011;41633;39.720;2.910;2022-08-03T04:48:14;11.73;;;3.05;;
55728;SDS011;41633;39.720;2.910;2022-08-03T04:50:41;9.15;;;3.00;;
55728;SDS011;41633;39.720;2.910;2022-08-03T04:53:07;12.38;;;2.97;;
55728;SDS011;41633;39.720;2.910;2022-08-03T04:55:34;10.90;;;2.83;;
55728;SDS011;41633;39.720;2.910;2022-08-03T04:58:01;10.43;;;2.90;;
55728;SDS011;41633;39.720;2.910;2022-08-03T05:00:27;16.10;;;3.42;;
55728;SDS011;41633;39.720;2.910;2022-08-03T05:02:53;11.18;;;2.67;;
55728;SDS011;41633;39.720;2.910;2022-08-03T05:05:19;9.40;;;2.80;;
55728;SDS011;41633;39.720;2.910;2022-08-03T05:07:46;9.35;;;2.90;;
55728;SDS011;41633;39.720;2.910;2022-08-03T05:10:12;10.73;;;2.65;;
55728;SDS011;41633;39.720;2.910;2022-08-03T05:12:39;12.00;;;3.65;;
55728;SDS011;41633;39.720;2.910;2022-08-03T05:15:05;11.80;;;4.10;;
55728;SDS011;41633;39.720;2.910;2022-08-03T05:17:32;10.25;;;2.90;;
55728;SDS011;41633;39.720;2.910;2022-08-03T05:19:58;8.45;;;2.85;;
55728;SDS011;41633;39.720;2.910;2022-08-03T05:22:25;9.73;;;2.85;;
55728;SDS011;41633;39.720;2.910;2022-08-03T05:24:51;10.15;;;3.17;;
55728;SDS011;41633;39.720;2.910;2022-08-03T05:27:18;9.77;;;3.10;;
55728;SDS011;41633;39.720;2.910;2022-08-03T05:29:47;9.18;;;3.20;;
55728;SDS011;41633;39.720;2.910;2022-08-03T05:32:14;12.25;;;3.67;;
55728;SDS011;41633;39.720;2.910;2022-08-03T05:34:40;12.57;;;3.70;;
55728;SDS011;41633;39.720;2.910;2022-08-03T05:37:06;21.27;;;4.10;;
55728;SDS011;41633;39.720;2.910;2022-08-03T05:39:33;20.55;;;4.30;;
55728;SDS011;41633;39.720;2.910;2022-08-03T05:41:59;25.67;;;4.93;;
55728;SDS011;41633;39.720;2.910;2022-08-03T05:44:25;13.13;;;3.20;;
55728;SDS011;41633;39.720;2.910;2022-08-03T05:46:52;13.55;;;3.83;;
55728;SDS011;41633;39.720;2.910;2022-08-03T05:49:18;13.02;;;4.10;;
55728;SDS011;41633;39.720;2.910;2022-08-03T05:51:44;17.50;;;4.88;;
55728;SDS011;41633;39.720;2.910;2022-08-03T05:54:11;11.38;;;3.63;;
55728;SDS011;41633;39.720;2.910;2022-08-03T05:56:37;15.68;;;4.22;;
55728;SDS011;41633;39.720;2.910;2022-08-03T05:59:06;10.70;;;3.33;;
55728;SDS011;41633;39.720;2.910;2022-08-03T06:01:32;11.25;;;3.20;;
55728;SDS011;41633;39.720;2.910;2022-08-03T06:03:58;23.95;;;4.38;;
55728;SDS011;41633;39.720;2.910;2022-08-03T06:06:24;20.52;;;4.35;;
55728;SDS011;41633;39.720;2.910;2022-08-03T06:08:51;12.32;;;3.30;;
55728;SDS011;41633;39.720;2.910;2022-08-03T06:11:17;12.70;;;3.22;;
55728;SDS011;41633;39.720;2.910;2022-08-03T06:13:43;10.30;;;2.70;;
55728;SDS011;41633;39.720;2.910;2022-08-03T06:16:09;12.13;;;2.78;;
55728;SDS011;41633;39.720;2.910;2022-08-03T06:18:36;11.48;;;2.80;;
55728;SDS011;41633;39.720;2.910;2022-08-03T06:21:02;8.43;;;2.80;;
55728;SDS011;41633;39.720;2.910;2022-08-03T06:23:28;7.38;;;2.65;;
55728;SDS011;41633;39.720;2.910;2022-08-03T06:25:54;8.95;;;2.70;;
55728;SDS011;41633;39.720;2.910;2022-08-03T06:28:21;12.13;;;3.80;;
55728;SDS011;41633;39.720;2.910;2022-08-03T06:30:47;15.15;;;3.70;;
55728;SDS011;41633;39.720;2.910;2022-08-03T06:33:13;12.20;;;3.55;;
55728;SDS011;41633;39.720;2.910;2022-08-03T06:35:39;10.85;;;3.65;;
55728;SDS011;41633;39.720;2.910;2022-08-03T06:38:06;8.55;;;3.13;;
55728;SDS011;41633;39.720;2.910;2022-08-03T06:40:35;9.15;;;2.80;;
55728;SDS011;41633;39.720;2.910;2022-08-03T06:43:04;12.55;;;3.40;;
55728;SDS011;41633;39.720;2.910;2022-08-03T06:45:31;12.13;;;4.78;;
55728;SDS011;41633;39.720;2.910;2022-08-03T06:48:05;9.43;;;2.92;;
55728;SDS011;41633;39.720;2.910;2022-08-03T06:50:32;9.32;;;3.80;;
55728;SDS011;41633;39.720;2.910;2022-08-03T06:52:58;10.23;;;3.05;;
55728;SDS011;41633;39.720;2.910;2022-08-03T06:55:24;9.55;;;3.05;;
55728;SDS011;41633;39.720;2.910;2022-08-03T06:57:50;12.73;;;4.15;;
55728;SDS011;41633;39.720;2.910;2022-08-03T07:00:17;11.40;;;3.03;;
55728;SDS011;41633;39.720;2.910;2022-08-03T07:02:43;12.50;;;4.65;;
55728;SDS011;41633;39.720;2.910;2022-08-03T07:05:10;12.25;;;6.65;;
55728;SDS011;41633;39.720;2.910;2022-08-03T07:07:36;13.15;;;6.65;;
55728;SDS011;41633;39.720;2.910;2022-08-03T07:10:03;11.85;;;3.45;;
55728;SDS011;41633;39.720;2.910;2022-08-03T07:12:32;16.55;;;3.95;;
55728;SDS011;41633;39.720;2.910;2022-08-03T07:14:59;12.23;;;3.63;;
55728;SDS011;41633;39.720;2.910;2022-08-03T07:17:25;9.77;;;3.15;;
55728;SDS011;41633;39.720;2.910;2022-08-03T07:19:51;8.95;;;3.33;;
55728;SDS011;41633;39.720;2.910;2022-08-03T07:22:17;8.90;;;3.00;;
55728;SDS011;41633;39.720;2.910;2022-08-03T07:24:43;8.65;;;2.83;;
55728;SDS011;41633;39.720;2.910;2022-08-03T07:27:10;7.07;;;2.72;;
55728;SDS011;41633;39.720;2.910;2022-08-03T07:29:36;11.77;;;3.15;;
55728;SDS011;41633;39.720;2.910;2022-08-03T07:32:03;9.50;;;3.10;;
55728;SDS011;41633;39.720;2.910;2022-08-03T07:34:30;11.40;;;2.83;;
55728;SDS011;41633;39.720;2.910;2022-08-03T07:36:56;13.35;;;2.40;;
55728;SDS011;41633;39.720;2.910;2022-08-03T07:39:22;10.50;;;2.42;;
55728;SDS011;41633;39.720;2.910;2022-08-03T07:41:48;11.20;;;2.55;;
55728;SDS011;41633;39.720;2.910;2022-08-03T07:44:16;12.75;;;2.70;;
55728;SDS011;41633;39.720;2.910;2022-08-03T07:46:42;9.52;;;2.50;;
55728;SDS011;41633;39.720;2.910;2022-08-03T07:49:08;11.15;;;2.30;;
55728;SDS011;41633;39.720;2.910;2022-08-03T07:51:34;8.07;;;2.20;;
55728;SDS011;41633;39.720;2.910;2022-08-03T07:54:01;8.02;;;2.25;;
55728;SDS011;41633;39.720;2.910;2022-08-03T07:56:27;6.72;;;1.98;;
55728;SDS011;41633;39.720;2.910;2022-08-03T07:58:53;8.77;;;2.10;;
55728;SDS011;41633;39.720;2.910;2022-08-03T08:01:20;9.38;;;2.42;;
55728;SDS011;41633;39.720;2.910;2022-08-03T08:03:46;8.85;;;2.10;;
55728;SDS011;41633;39.720;2.910;2022-08-03T08:06:15;9.98;;;2.13;;
55728;SDS011;41633;39.720;2.910;2022-08-03T08:08:42;10.18;;;2.13;;
55728;SDS011;41633;39.720;2.910;2022-08-03T08:11:08;10.18;;;2.20;;
55728;SDS011;41633;39.720;2.910;2022-08-03T08:13:34;8.38;;;2.35;;
55728;SDS011;41633;39.720;2.910;2022-08-03T08:16:02;9.88;;;2.47;;
55728;SDS011;41633;39.720;2.910;2022-08-03T08:18:29;12.55;;;2.50;;
55728;SDS011;41633;39.720;2.910;2022-08-03T08:20:55;8.85;;;2.10;;
55728;SDS011;41633;39.720;2.910;2022-08-03T08:23:22;11.18;;;2.47;;
55728;SDS011;41633;39.720;2.910;2022-08-03T08:25:48;9.90;;;2.20;;
55728;SDS011;41633;39.720;2.910;2022-08-03T08:28:21;6.18;;;2.13;;
55728;SDS011;41633;39.720;2.910;2022-08-03T08:30:47;6.22;;;1.88;;
55728;SDS011;41633;39.720;2.910;2022-08-03T08:33:14;4.72;;;1.65;;
55728;SDS011;41633;39.720;2.910;2022-08-03T08:35:40;7.38;;;2.10;;
55728;SDS011;41633;39.720;2.910;2022-08-03T08:38:06;7.97;;;2.25;;
55728;SDS011;41633;39.720;2.910;2022-08-03T08:40:32;6.45;;;1.90;;
55728;SDS011;41633;39.720;2.910;2022-08-03T08:42:58;6.22;;;1.90;;
55728;SDS011;41633;39.720;2.910;2022-08-03T08:45:25;6.63;;;1.70;;
55728;SDS011;41633;39.720;2.910;2022-08-03T08:47:51;11.07;;;2.20;;
55728;SDS011;41633;39.720;2.910;2022-08-03T08:50:20;5.57;;;1.90;;
55728;SDS011;41633;39.720;2.910;2022-08-03T08:52:47;8.27;;;1.90;;
55728;SDS011;41633;39.720;2.910;2022-08-03T08:55:14;8.32;;;2.30;;
55728;SDS011;41633;39.720;2.910;2022-08-03T08:57:46;7.47;;;2.08;;
55728;SDS011;41633;39.720;2.910;2022-08-03T09:00:13;7.35;;;1.95;;
55728;SDS011;41633;39.720;2.910;2022-08-03T09:02:40;8.43;;;2.10;;
55728;SDS011;41633;39.720;2.910;2022-08-03T09:05:10;8.25;;;2.17;;
55728;SDS011;41633;39.720;2.910;2022-08-03T09:07:40;6.88;;;2.00;;
55728;SDS011;41633;39.720;2.910;2022-08-03T09:10:07;6.53;;;2.10;;
55728;SDS011;41633;39.720;2.910;2022-08-03T09:12:37;4.93;;;1.98;;
55728;SDS011;41633;39.720;2.910;2022-08-03T09:15:17;7.72;;;2.08;;
55728;SDS011;41633;39.720;2.910;2022-08-03T09:17:44;5.72;;;1.98;;
55728;SDS011;41633;39.720;2.910;2022-08-03T09:20:11;6.60;;;2.10;;
55728;SDS011;41633;39.720;2.910;2022-08-03T09:22:59;10.52;;;2.50;;
55728;SDS011;41633;39.720;2.910;2022-08-03T09:25:27;7.30;;;2.20;;
55728;SDS011;41633;39.720;2.910;2022-08-03T09:27:53;9.52;;;2.08;;
55728;SDS011;41633;39.720;2.910;2022-08-03T09:30:19;7.10;;;2.03;;
55728;SDS011;41633;39.720;2.910;2022-08-03T09:32:46;6.18;;;2.00;;
55728;SDS011;41633;39.720;2.910;2022-08-03T09:35:12;6.70;;;1.95;;
55728;SDS011;41633;39.720;2.910;2022-08-03T09:37:39;7.63;;;1.85;;
55728;SDS011;41633;39.720;2.910;2022-08-03T09:40:05;9.02;;;2.10;;
55728;SDS011;41633;39.720;2.910;2022-08-03T09:42:32;7.15;;;1.80;;
55728;SDS011;41633;39.720;2.910;2022-08-03T09:45:07;9.32;;;1.90;;
55728;SDS011;41633;39.720;2.910;2022-08-03T09:47:50;8.18;;;2.08;;
55728;SDS011;41633;39.720;2.910;2022-08-03T09:50:16;7.90;;;2.28;;
55728;SDS011;41633;39.720;2.910;2022-08-03T09:52:42;7.13;;;1.75;;
55728;SDS011;41633;39.720;2.910;2022-08-03T09:55:11;6.40;;;1.92;;
55728;SDS011;41633;39.720;2.910;2022-08-03T09:57:38;7.32;;;1.67;;
55728;SDS011;41633;39.720;2.910;2022-08-03T10:02:37;6.93;;;2.10;;
55728;SDS011;41633;39.720;2.910;2022-08-03T10:05:04;8.10;;;2.10;;
55728;SDS011;41633;39.720;2.910;2022-08-03T10:07:40;7.22;;;2.20;;
55728;SDS011;41633;39.720;2.910;2022-08-03T10:10:07;5.53;;;2.05;;
55728;SDS011;41633;39.720;2.910;2022-08-03T10:12:34;6.72;;;2.25;;
55728;SDS011;41633;39.720;2.910;2022-08-03T10:15:01;7.28;;;2.08;;
55728;SDS011;41633;39.720;2.910;2022-08-03T10:17:27;4.78;;;1.90;;
55728;SDS011;41633;39.720;2.910;2022-08-03T10:19:53;7.20;;;2.20;;
55728;SDS011;41633;39.720;2.910;2022-08-03T10:22:24;8.30;;;1.95;;
55728;SDS011;41633;39.720;2.910;2022-08-03T10:25:12;6.10;;;2.10;;
55728;SDS011;41633;39.720;2.910;2022-08-03T10:27:41;7.05;;;1.80;;
55728;SDS011;41633;39.720;2.910;2022-08-03T10:30:10;6.47;;;1.80;;
55728;SDS011;41633;39.720;2.910;2022-08-03T10:32:43;5.40;;;1.60;;
55728;SDS011;41633;39.720;2.910;2022-08-03T10:35:16;6.18;;;1.70;;
55728;SDS011;41633;39.720;2.910;2022-08-03T10:38:05;4.50;;;1.55;;
55728;SDS011;41633;39.720;2.910;2022-08-03T10:40:32;4.72;;;1.60;;
55728;SDS011;41633;39.720;2.910;2022-08-03T10:43:02;7.95;;;3.03;;
55728;SDS011;41633;39.720;2.910;2022-08-03T10:45:31;6.38;;;1.70;;
55728;SDS011;41633;39.720;2.910;2022-08-03T10:47:59;7.63;;;2.08;;
55728;SDS011;41633;39.720;2.910;2022-08-03T10:50:25;5.35;;;1.70;;
55728;SDS011;41633;39.720;2.910;2022-08-03T10:53:04;7.85;;;1.92;;
55728;SDS011;41633;39.720;2.910;2022-08-03T10:55:34;7.68;;;1.60;;
55728;SDS011;41633;39.720;2.910;2022-08-03T11:01:09;4.53;;;1.60;;
55728;SDS011;41633;39.720;2.910;2022-08-03T11:04:12;4.90;;;1.40;;
55728;SDS011;41633;39.720;2.910;2022-08-03T11:06:33;8.27;;;1.77;;
55728;SDS011;41633;39.720;2.910;2022-08-03T11:11:35;5.88;;;1.65;;
55728;SDS011;41633;39.720;2.910;2022-08-03T11:14:15;6.57;;;1.70;;
55728;SDS011;41633;39.720;2.910;2022-08-03T11:16:42;6.00;;;1.70;;
55728;SDS011;41633;39.720;2.910;2022-08-03T11:19:18;6.57;;;1.58;;
55728;SDS011;41633;39.720;2.910;2022-08-03T11:21:52;5.13;;;1.60;;
55728;SDS011;41633;39.720;2.910;2022-08-03T11:27:22;4.63;;;1.80;;
55728;SDS011;41633;39.720;2.910;2022-08-03T11:37:33;7.25;;;1.65;;
55728;SDS011;41633;39.720;2.910;2022-08-03T11:39:59;4.85;;;1.52;;
55728;SDS011;41633;39.720;2.910;2022-08-03T11:44:54;7.65;;;1.67;;
55728;SDS011;41633;39.720;2.910;2022-08-03T11:47:20;8.52;;;1.90;;
55728;SDS011;41633;39.720;2.910;2022-08-03T11:49:48;6.57;;;1.70;;
55728;SDS011;41633;39.720;2.910;2022-08-03T11:52:14;9.02;;;1.73;;
55728;SDS011;41633;39.720;2.910;2022-08-03T11:54:41;5.22;;;1.60;;
55728;SDS011;41633;39.720;2.910;2022-08-03T11:57:07;7.25;;;1.50;;
55728;SDS011;41633;39.720;2.910;2022-08-03T11:59:34;7.55;;;1.70;;
55728;SDS011;41633;39.720;2.910;2022-08-03T12:02:08;9.13;;;1.42;;
55728;SDS011;41633;39.720;2.910;2022-08-03T12:07:16;8.00;;;1.85;;
55728;SDS011;41633;39.720;2.910;2022-08-03T12:09:43;12.45;;;1.92;;
55728;SDS011;41633;39.720;2.910;2022-08-03T12:12:09;5.93;;;1.60;;
55728;SDS011;41633;39.720;2.910;2022-08-03T12:14:35;5.90;;;1.80;;
55728;SDS011;41633;39.720;2.910;2022-08-03T12:17:01;7.57;;;1.55;;
55728;SDS011;41633;39.720;2.910;2022-08-03T12:19:38;8.38;;;1.70;;
55728;SDS011;41633;39.720;2.910;2022-08-03T12:22:06;3.88;;;1.40;;
55728;SDS011;41633;39.720;2.910;2022-08-03T12:24:39;5.97;;;1.48;;
55728;SDS011;41633;39.720;2.910;2022-08-03T12:27:06;5.10;;;1.40;;
55728;SDS011;41633;39.720;2.910;2022-08-03T12:29:32;8.18;;;1.52;;
55728;SDS011;41633;39.720;2.910;2022-08-03T12:31:58;5.85;;;1.35;;
55728;SDS011;41633;39.720;2.910;2022-08-03T12:34:43;5.15;;;1.55;;
55728;SDS011;41633;39.720;2.910;2022-08-03T12:37:09;8.77;;;1.65;;
55728;SDS011;41633;39.720;2.910;2022-08-03T12:39:35;6.38;;;1.33;;
55728;SDS011;41633;39.720;2.910;2022-08-03T12:42:01;8.50;;;1.60;;
55728;SDS011;41633;39.720;2.910;2022-08-03T12:44:34;3.42;;;1.23;;
55728;SDS011;41633;39.720;2.910;2022-08-03T12:47:01;5.80;;;1.35;;
55728;SDS011;41633;39.720;2.910;2022-08-03T12:49:27;4.95;;;1.38;;
55728;SDS011;41633;39.720;2.910;2022-08-03T12:54:21;8.68;;;1.50;;
55728;SDS011;41633;39.720;2.910;2022-08-03T12:57:04;6.95;;;1.45;;
55728;SDS011;41633;39.720;2.910;2022-08-03T12:59:34;4.38;;;1.33;;
55728;SDS011;41633;39.720;2.910;2022-08-03T13:02:04;6.53;;;1.58;;
55728;SDS011;41633;39.720;2.910;2022-08-03T13:04:31;4.30;;;1.35;;
55728;SDS011;41633;39.720;2.910;2022-08-03T13:07:05;5.55;;;1.40;;
55728;SDS011;41633;39.720;2.910;2022-08-03T13:09:45;8.23;;;1.40;;
55728;SDS011;41633;39.720;2.910;2022-08-03T13:12:15;5.53;;;1.40;;
55728;SDS011;41633;39.720;2.910;2022-08-03T13:14:43;4.60;;;1.45;;
55728;SDS011;41633;39.720;2.910;2022-08-03T13:17:09;4.93;;;1.50;;
55728;SDS011;41633;39.720;2.910;2022-08-03T13:19:36;4.40;;;1.58;;
55728;SDS011;41633;39.720;2.910;2022-08-03T13:22:12;5.05;;;1.30;;
55728;SDS011;41633;39.720;2.910;2022-08-03T13:24:39;3.45;;;1.40;;
55728;SDS011;41633;39.720;2.910;2022-08-03T13:27:05;5.70;;;1.60;;
55728;SDS011;41633;39.720;2.910;2022-08-03T13:29:32;4.95;;;1.73;;
55728;SDS011;41633;39.720;2.910;2022-08-03T13:31:58;5.28;;;1.30;;
55728;SDS011;41633;39.720;2.910;2022-08-03T13:34:24;7.45;;;1.50;;
55728;SDS011;41633;39.720;2.910;2022-08-03T13:36:51;6.85;;;1.33;;
55728;SDS011;41633;39.720;2.910;2022-08-03T13:39:17;5.30;;;1.50;;
55728;SDS011;41633;39.720;2.910;2022-08-03T13:41:44;6.88;;;1.60;;
55728;SDS011;41633;39.720;2.910;2022-08-03T13:44:10;6.40;;;1.30;;
55728;SDS011;41633;39.720;2.910;2022-08-03T13:46:36;10.10;;;1.67;;
55728;SDS011;41633;39.720;2.910;2022-08-03T13:49:02;6.28;;;1.70;;
55728;SDS011;41633;39.720;2.910;2022-08-03T13:51:29;4.78;;;1.33;;
55728;SDS011;41633;39.720;2.910;2022-08-03T13:53:55;6.82;;;1.60;;
55728;SDS011;41633;39.720;2.910;2022-08-03T13:56:27;6.15;;;1.63;;
55728;SDS011;41633;39.720;2.910;2022-08-03T13:58:53;5.13;;;1.77;;
55728;SDS011;41633;39.720;2.910;2022-08-03T14:01:20;5.63;;;1.50;;
55728;SDS011;41633;39.720;2.910;2022-08-03T14:03:46;7.93;;;1.50;;
55728;SDS011;41633;39.720;2.910;2022-08-03T14:06:14;5.07;;;1.48;;
55728;SDS011;41633;39.720;2.910;2022-08-03T14:08:43;6.13;;;1.67;;
55728;SDS011;41633;39.720;2.910;2022-08-03T14:11:09;5.53;;;1.67;;
55728;SDS011;41633;39.720;2.910;2022-08-03T14:13:36;7.18;;;1.52;;
55728;SDS011;41633;39.720;2.910;2022-08-03T14:16:02;5.05;;;1.23;;
55728;SDS011;41633;39.720;2.910;2022-08-03T14:18:28;6.53;;;1.50;;
55728;SDS011;41633;39.720;2.910;2022-08-03T14:20:55;5.53;;;1.48;;
55728;SDS011;41633;39.720;2.910;2022-08-03T14:23:22;6.80;;;1.40;;
55728;SDS011;41633;39.720;2.910;2022-08-03T14:25:48;5.03;;;1.40;;
55728;SDS011;41633;39.720;2.910;2022-08-03T14:28:14;5.85;;;1.40;;
55728;SDS011;41633;39.720;2.910;2022-08-03T14:30:40;6.53;;;1.33;;
55728;SDS011;41633;39.720;2.910;2022-08-03T14:33:06;4.20;;;1.30;;
55728;SDS011;41633;39.720;2.910;2022-08-03T14:35:32;5.40;;;1.50;;
55728;SDS011;41633;39.720;2.910;2022-08-03T14:37:58;6.25;;;1.15;;
55728;SDS011;41633;39.720;2.910;2022-08-03T14:40:24;4.78;;;1.20;;
55728;SDS011;41633;39.720;2.910;2022-08-03T14:42:50;5.25;;;1.33;;
55728;SDS011;41633;39.720;2.910;2022-08-03T14:45:17;6.68;;;1.25;;
55728;SDS011;41633;39.720;2.910;2022-08-03T14:47:43;6.40;;;1.20;;
55728;SDS011;41633;39.720;2.910;2022-08-03T14:50:09;4.18;;;1.00;;
55728;SDS011;41633;39.720;2.910;2022-08-03T14:52:35;3.15;;;1.02;;
55728;SDS011;41633;39.720;2.910;2022-08-03T14:55:01;3.67;;;1.10;;
55728;SDS011;41633;39.720;2.910;2022-08-03T14:57:27;4.47;;;1.10;;
55728;SDS011;41633;39.720;2.910;2022-08-03T14:59:53;2.83;;;0.93;;
55728;SDS011;41633;39.720;2.910;2022-08-03T15:02:19;4.40;;;1.08;;
55728;SDS011;41633;39.720;2.910;2022-08-03T15:04:46;4.90;;;1.00;;
55728;SDS011;41633;39.720;2.910;2022-08-03T15:07:12;3.95;;;1.10;;
55728;SDS011;41633;39.720;2.910;2022-08-03T15:09:38;4.25;;;1.08;;
55728;SDS011;41633;39.720;2.910;2022-08-03T15:12:04;3.40;;;1.02;;
55728;SDS011;41633;39.720;2.910;2022-08-03T15:14:31;6.60;;;1.13;;
55728;SDS011;41633;39.720;2.910;2022-08-03T15:16:57;3.53;;;1.00;;
55728;SDS011;41633;39.720;2.910;2022-08-03T15:19:23;6.88;;;1.23;;
55728;SDS011;41633;39.720;2.910;2022-08-03T15:21:49;4.53;;;1.00;;
55728;SDS011;41633;39.720;2.910;2022-08-03T15:24:15;4.10;;;0.90;;
55728;SDS011;41633;39.720;2.910;2022-08-03T15:26:41;5.00;;;1.20;;
55728;SDS011;41633;39.720;2.910;2022-08-03T15:29:08;4.28;;;1.20;;